sensor_id;sensor_type;location;lat;lon;timestamp;temperature;humidity
21184;DHT22;18176;49.502;11.754;2022-11-13T00:03:22;3.50;99.90
21184;DHT22;18176;49.502;11.754;2022-11-13T00:07:41;3.50;99.90
21184;DHT22;18176;49.502;11.754;2022-11-13T00:12:00;3.50;99.90
21184;DHT22;18176;49.502;11.754;2022-11-13T00:16:21;3.50;99.90
21184;DHT22;18176;49.502;11.754;2022-11-13T00:20:39;3.40;99.90
21184;DHT22;18176;49.502;11.754;2022-11-13T00:24:58;3.50;99.90
21184;DHT22;18176;49.502;11.754;2022-11-13T00:29:16;3.40;99.90
21184;DHT22;18176;49.502;11.754;2022-11-13T00:33:37;3.40;99.90
21184;DHT22;18176;49.502;11.754;2022-11-13T00:38:16;3.40;99.90
21184;DHT22;18176;49.502;11.754;2022-11-13T00:42:34;3.40;99.90
21184;DHT22;18176;49.502;11.754;2022-11-13T00:46:53;3.40;99.90
21184;DHT22;18176;49.502;11.754;2022-11-13T00:51:14;3.30;99.90
21184;DHT22;18176;49.502;11.754;2022-11-13T00:55:34;3.40;99.90
21184;DHT22;18176;49.502;11.754;2022-11-13T00:59:53;3.40;99.90
21184;DHT22;18176;49.502;11.754;2022-11-13T01:04:11;3.40;99.90
21184;DHT22;18176;49.502;11.754;2022-11-13T01:08:32;3.30;99.90
21184;DHT22;18176;49.502;11.754;2022-11-13T01:12:51;3.30;99.90
21184;DHT22;18176;49.502;11.754;2022-11-13T01:17:09;3.20;99.90
21184;DHT22;18176;49.502;11.754;2022-11-13T01:21:28;3.20;99.90
21184;DHT22;18176;49.502;11.754;2022-11-13T01:25:49;3.10;99.90
21184;DHT22;18176;49.502;11.754;2022-11-13T01:30:09;3.00;99.90
21184;DHT22;18176;49.502;11.754;2022-11-13T01:34:29;2.90;99.90
21184;DHT22;18176;49.502;11.754;2022-11-13T01:38:48;2.80;99.90
21184;DHT22;18176;49.502;11.754;2022-11-13T01:43:26;2.80;99.90
21184;DHT22;18176;49.502;11.754;2022-11-13T01:47:49;2.70;99.90
21184;DHT22;18176;49.502;11.754;2022-11-13T01:52:11;2.60;99.90
21184;DHT22;18176;49.502;11.754;2022-11-13T01:56:32;2.50;99.90
21184;DHT22;18176;49.502;11.754;2022-11-13T02:00:54;2.50;99.90
21184;DHT22;18176;49.502;11.754;2022-11-13T02:05:13;2.60;99.90
21184;DHT22;18176;49.502;11.754;2022-11-13T02:09:35;2.60;99.90
21184;DHT22;18176;49.502;11.754;2022-11-13T02:13:57;2.60;99.90
21184;DHT22;18176;49.502;11.754;2022-11-13T02:18:21;2.40;99.90
21184;DHT22;18176;49.502;11.754;2022-11-13T02:22:50;2.40;99.90
21184;DHT22;18176;49.502;11.754;2022-11-13T02:27:25;2.30;99.90
21184;DHT22;18176;49.502;11.754;2022-11-13T02:31:47;2.10;99.90
21184;DHT22;18176;49.502;11.754;2022-11-13T02:36:07;2.10;99.90
21184;DHT22;18176;49.502;11.754;2022-11-13T02:40:28;2.10;99.90
21184;DHT22;18176;49.502;11.754;2022-11-13T02:44:51;2.10;99.90
21184;DHT22;18176;49.502;11.754;2022-11-13T02:49:09;2.00;99.90
21184;DHT22;18176;49.502;11.754;2022-11-13T02:53:28;2.00;99.90
21184;DHT22;18176;49.502;11.754;2022-11-13T02:57:47;1.90;99.90
21184;DHT22;18176;49.502;11.754;2022-11-13T03:02:08;1.80;99.90
21184;DHT22;18176;49.502;11.754;2022-11-13T03:06:26;1.80;99.90
21184;DHT22;18176;49.502;11.754;2022-11-13T03:10:45;1.80;99.90
21184;DHT22;18176;49.502;11.754;2022-11-13T03:15:06;1.70;99.90
21184;DHT22;18176;49.502;11.754;2022-11-13T03:19:28;1.70;99.90
21184;DHT22;18176;49.502;11.754;2022-11-13T03:23:47;1.60;99.90
21184;DHT22;18176;49.502;11.754;2022-11-13T03:28:05;1.60;99.90
21184;DHT22;18176;49.502;11.754;2022-11-13T03:32:24;1.60;99.90
21184;DHT22;18176;49.502;11.754;2022-11-13T03:36:45;1.60;99.90
21184;DHT22;18176;49.502;11.754;2022-11-13T03:41:04;1.50;99.90
21184;DHT22;18176;49.502;11.754;2022-11-13T03:45:23;1.40;99.90
21184;DHT22;18176;49.502;11.754;2022-11-13T03:49:42;1.30;99.90
21184;DHT22;18176;49.502;11.754;2022-11-13T03:54:03;1.20;99.90
21184;DHT22;18176;49.502;11.754;2022-11-13T03:58:22;1.10;99.90
21184;DHT22;18176;49.502;11.754;2022-11-13T04:02:42;1.00;99.90
21184;DHT22;18176;49.502;11.754;2022-11-13T04:07:00;1.00;99.90
21184;DHT22;18176;49.502;11.754;2022-11-13T04:11:22;0.80;99.90
21184;DHT22;18176;49.502;11.754;2022-11-13T04:15:40;0.80;99.90
21184;DHT22;18176;49.502;11.754;2022-11-13T04:19:59;0.60;99.90
21184;DHT22;18176;49.502;11.754;2022-11-13T04:24:17;0.50;99.90
21184;DHT22;18176;49.502;11.754;2022-11-13T04:28:38;0.40;99.90
21184;DHT22;18176;49.502;11.754;2022-11-13T04:32:57;0.40;99.90
21184;DHT22;18176;49.502;11.754;2022-11-13T04:37:15;0.30;99.90
21184;DHT22;18176;49.502;11.754;2022-11-13T04:41:34;0.20;99.90
21184;DHT22;18176;49.502;11.754;2022-11-13T04:46:12;0.10;99.90
21184;DHT22;18176;49.502;11.754;2022-11-13T04:50:31;0.10;99.90
21184;DHT22;18176;49.502;11.754;2022-11-13T04:54:50;0.10;99.90
21184;DHT22;18176;49.502;11.754;2022-11-13T04:59:09;0.00;99.90
21184;DHT22;18176;49.502;11.754;2022-11-13T05:03:30;0.00;99.90
21184;DHT22;18176;49.502;11.754;2022-11-13T05:07:48;0.00;99.90
21184;DHT22;18176;49.502;11.754;2022-11-13T05:12:07;-0.10;99.90
21184;DHT22;18176;49.502;11.754;2022-11-13T05:16:26;-0.10;99.90
21184;DHT22;18176;49.502;11.754;2022-11-13T05:20:47;-0.20;99.90
21184;DHT22;18176;49.502;11.754;2022-11-13T05:25:07;-0.20;99.90
21184;DHT22;18176;49.502;11.754;2022-11-13T05:29:26;-0.20;99.90
21184;DHT22;18176;49.502;11.754;2022-11-13T05:33:44;-0.30;99.90
21184;DHT22;18176;49.502;11.754;2022-11-13T05:38:06;-0.20;99.90
21184;DHT22;18176;49.502;11.754;2022-11-13T05:42:24;-0.20;99.90
21184;DHT22;18176;49.502;11.754;2022-11-13T05:46:43;-0.20;99.90
21184;DHT22;18176;49.502;11.754;2022-11-13T05:51:02;-0.30;99.90
21184;DHT22;18176;49.502;11.754;2022-11-13T05:55:24;-0.30;99.90
21184;DHT22;18176;49.502;11.754;2022-11-13T05:59:43;-0.40;99.90
21184;DHT22;18176;49.502;11.754;2022-11-13T06:04:03;-0.40;99.90
21184;DHT22;18176;49.502;11.754;2022-11-13T06:08:22;-0.40;99.90
21184;DHT22;18176;49.502;11.754;2022-11-13T06:12:45;-0.40;99.90
21184;DHT22;18176;49.502;11.754;2022-11-13T06:17:04;-0.40;99.90
21184;DHT22;18176;49.502;11.754;2022-11-13T06:21:24;-0.40;99.90
21184;DHT22;18176;49.502;11.754;2022-11-13T06:25:44;-0.40;99.90
21184;DHT22;18176;49.502;11.754;2022-11-13T06:30:08;-0.40;99.90
21184;DHT22;18176;49.502;11.754;2022-11-13T06:34:27;-0.40;99.90
21184;DHT22;18176;49.502;11.754;2022-11-13T06:38:47;-0.50;99.90
21184;DHT22;18176;49.502;11.754;2022-11-13T06:43:06;-0.40;99.90
21184;DHT22;18176;49.502;11.754;2022-11-13T06:47:27;-0.30;99.90
21184;DHT22;18176;49.502;11.754;2022-11-13T06:51:46;-0.20;99.90
21184;DHT22;18176;49.502;11.754;2022-11-13T06:56:06;-0.20;99.90
21184;DHT22;18176;49.502;11.754;2022-11-13T07:00:25;-0.10;99.90
21184;DHT22;18176;49.502;11.754;2022-11-13T07:04:53;-0.10;99.90
21184;DHT22;18176;49.502;11.754;2022-11-13T07:09:12;0.10;99.90
21184;DHT22;18176;49.502;11.754;2022-11-13T07:13:31;0.40;99.90
21184;DHT22;18176;49.502;11.754;2022-11-13T07:17:49;0.80;99.90
21184;DHT22;18176;49.502;11.754;2022-11-13T07:22:11;1.10;99.90
21184;DHT22;18176;49.502;11.754;2022-11-13T07:26:29;1.50;99.90
21184;DHT22;18176;49.502;11.754;2022-11-13T07:30:48;1.70;99.90
21184;DHT22;18176;49.502;11.754;2022-11-13T07:35:08;2.00;99.90
21184;DHT22;18176;49.502;11.754;2022-11-13T07:39:29;2.30;99.90
21184;DHT22;18176;49.502;11.754;2022-11-13T07:43:48;2.50;99.90
21184;DHT22;18176;49.502;11.754;2022-11-13T07:48:06;2.70;99.90
21184;DHT22;18176;49.502;11.754;2022-11-13T07:52:26;3.00;99.90
21184;DHT22;18176;49.502;11.754;2022-11-13T07:56:48;3.40;99.90
21184;DHT22;18176;49.502;11.754;2022-11-13T08:01:08;3.80;99.90
21184;DHT22;18176;49.502;11.754;2022-11-13T08:05:29;4.10;99.90
21184;DHT22;18176;49.502;11.754;2022-11-13T08:09:47;4.30;99.90
21184;DHT22;18176;49.502;11.754;2022-11-13T08:14:09;4.40;99.90
21184;DHT22;18176;49.502;11.754;2022-11-13T08:18:29;4.70;99.90
21184;DHT22;18176;49.502;11.754;2022-11-13T08:22:49;5.20;99.90
21184;DHT22;18176;49.502;11.754;2022-11-13T08:27:08;5.50;99.90
21184;DHT22;18176;49.502;11.754;2022-11-13T08:31:30;5.70;99.90
21184;DHT22;18176;49.502;11.754;2022-11-13T08:35:52;6.00;99.90
21184;DHT22;18176;49.502;11.754;2022-11-13T08:40:12;6.30;99.90
21184;DHT22;18176;49.502;11.754;2022-11-13T08:44:30;6.50;99.90
21184;DHT22;18176;49.502;11.754;2022-11-13T08:48:51;6.90;99.90
21184;DHT22;18176;49.502;11.754;2022-11-13T08:53:10;7.30;99.90
21184;DHT22;18176;49.502;11.754;2022-11-13T08:57:29;7.70;99.90
21184;DHT22;18176;49.502;11.754;2022-11-13T09:01:48;8.10;99.90
21184;DHT22;18176;49.502;11.754;2022-11-13T09:06:15;8.60;99.90
21184;DHT22;18176;49.502;11.754;2022-11-13T09:10:33;9.20;99.90
21184;DHT22;18176;49.502;11.754;2022-11-13T09:14:52;9.80;99.90
21184;DHT22;18176;49.502;11.754;2022-11-13T09:19:10;10.30;99.90
21184;DHT22;18176;49.502;11.754;2022-11-13T09:23:31;10.70;99.90
21184;DHT22;18176;49.502;11.754;2022-11-13T09:27:51;11.10;99.90
21184;DHT22;18176;49.502;11.754;2022-11-13T09:32:11;11.50;99.90
21184;DHT22;18176;49.502;11.754;2022-11-13T09:36:30;11.60;99.90
21184;DHT22;18176;49.502;11.754;2022-11-13T09:40:55;11.90;99.90
21184;DHT22;18176;49.502;11.754;2022-11-13T09:45:16;12.30;99.90
21184;DHT22;18176;49.502;11.754;2022-11-13T09:49:39;12.60;99.90
21184;DHT22;18176;49.502;11.754;2022-11-13T09:54:04;13.10;99.90
21184;DHT22;18176;49.502;11.754;2022-11-13T09:58:32;13.40;99.90
21184;DHT22;18176;49.502;11.754;2022-11-13T10:03:14;13.50;99.90
21184;DHT22;18176;49.502;11.754;2022-11-13T10:08:06;13.70;99.90
21184;DHT22;18176;49.502;11.754;2022-11-13T10:12:31;13.90;99.90
21184;DHT22;18176;49.502;11.754;2022-11-13T10:16:57;14.20;99.90
21184;DHT22;18176;49.502;11.754;2022-11-13T10:21:29;14.20;99.90
21184;DHT22;18176;49.502;11.754;2022-11-13T10:25:51;14.50;99.90
21184;DHT22;18176;49.502;11.754;2022-11-13T10:30:15;14.80;99.90
21184;DHT22;18176;49.502;11.754;2022-11-13T10:34:38;14.90;99.90
21184;DHT22;18176;49.502;11.754;2022-11-13T10:39:03;14.80;99.90
21184;DHT22;18176;49.502;11.754;2022-11-13T10:43:25;15.70;99.90
21184;DHT22;18176;49.502;11.754;2022-11-13T10:47:46;16.00;99.90
21184;DHT22;18176;49.502;11.754;2022-11-13T10:52:26;15.90;99.90
21184;DHT22;18176;49.502;11.754;2022-11-13T10:56:56;15.70;99.90
21184;DHT22;18176;49.502;11.754;2022-11-13T11:01:21;15.60;99.90
21184;DHT22;18176;49.502;11.754;2022-11-13T11:05:51;15.00;99.90
21184;DHT22;18176;49.502;11.754;2022-11-13T11:10:24;14.70;99.90
21184;DHT22;18176;49.502;11.754;2022-11-13T11:15:01;15.00;99.90
21184;DHT22;18176;49.502;11.754;2022-11-13T11:19:30;14.90;99.90
21184;DHT22;18176;49.502;11.754;2022-11-13T11:23:57;14.90;99.90
21184;DHT22;18176;49.502;11.754;2022-11-13T11:28:30;15.50;99.90
21184;DHT22;18176;49.502;11.754;2022-11-13T11:32:59;15.50;99.90
21184;DHT22;18176;49.502;11.754;2022-11-13T11:37:29;15.30;99.90
21184;DHT22;18176;49.502;11.754;2022-11-13T11:41:59;16.30;99.90
21184;DHT22;18176;49.502;11.754;2022-11-13T11:46:29;16.70;99.90
21184;DHT22;18176;49.502;11.754;2022-11-13T11:50:53;17.50;99.90
21184;DHT22;18176;49.502;11.754;2022-11-13T11:55:44;17.60;99.90
21184;DHT22;18176;49.502;11.754;2022-11-13T12:00:16;18.60;99.90
21184;DHT22;18176;49.502;11.754;2022-11-13T12:04:51;18.80;99.90
21184;DHT22;18176;49.502;11.754;2022-11-13T12:09:26;19.00;99.90
21184;DHT22;18176;49.502;11.754;2022-11-13T12:13:56;18.70;99.90
21184;DHT22;18176;49.502;11.754;2022-11-13T12:18:27;17.90;99.90
21184;DHT22;18176;49.502;11.754;2022-11-13T12:23:03;18.90;99.90
21184;DHT22;18176;49.502;11.754;2022-11-13T12:27:36;19.00;99.90
21184;DHT22;18176;49.502;11.754;2022-11-13T12:32:06;19.20;99.90
21184;DHT22;18176;49.502;11.754;2022-11-13T12:36:33;19.80;99.90
21184;DHT22;18176;49.502;11.754;2022-11-13T12:41:00;20.00;99.90
21184;DHT22;18176;49.502;11.754;2022-11-13T12:45:33;20.40;99.90
21184;DHT22;18176;49.502;11.754;2022-11-13T12:50:05;21.50;99.90
21184;DHT22;18176;49.502;11.754;2022-11-13T12:54:47;22.00;97.20
21184;DHT22;18176;49.502;11.754;2022-11-13T12:59:30;22.10;96.60
21184;DHT22;18176;49.502;11.754;2022-11-13T13:09:04;20.10;97.20
21184;DHT22;18176;49.502;11.754;2022-11-13T13:13:39;20.30;97.10
21184;DHT22;18176;49.502;11.754;2022-11-13T13:18:10;20.00;96.50
21184;DHT22;18176;49.502;11.754;2022-11-13T13:22:54;19.40;97.10
21184;DHT22;18176;49.502;11.754;2022-11-13T13:27:20;19.60;97.40
21184;DHT22;18176;49.502;11.754;2022-11-13T13:31:47;19.10;97.50
21184;DHT22;18176;49.502;11.754;2022-11-13T13:36:20;19.10;97.30
21184;DHT22;18176;49.502;11.754;2022-11-13T13:40:58;19.30;96.30
21184;DHT22;18176;49.502;11.754;2022-11-13T13:45:36;18.10;97.60
21184;DHT22;18176;49.502;11.754;2022-11-13T13:50:06;17.00;99.50
21184;DHT22;18176;49.502;11.754;2022-11-13T13:54:35;16.50;99.80
21184;DHT22;18176;49.502;11.754;2022-11-13T13:58:57;16.10;99.90
21184;DHT22;18176;49.502;11.754;2022-11-13T14:03:20;16.40;99.90
21184;DHT22;18176;49.502;11.754;2022-11-13T14:07:45;16.60;99.90
21184;DHT22;18176;49.502;11.754;2022-11-13T14:12:16;16.70;99.90
21184;DHT22;18176;49.502;11.754;2022-11-13T14:16:46;16.10;99.90
21184;DHT22;18176;49.502;11.754;2022-11-13T14:21:10;15.70;99.90
21184;DHT22;18176;49.502;11.754;2022-11-13T14:25:32;14.90;99.90
21184;DHT22;18176;49.502;11.754;2022-11-13T14:29:55;14.50;99.90
21184;DHT22;18176;49.502;11.754;2022-11-13T14:34:19;14.20;99.90
21184;DHT22;18176;49.502;11.754;2022-11-13T14:38:42;14.00;99.90
21184;DHT22;18176;49.502;11.754;2022-11-13T14:43:12;13.50;99.90
21184;DHT22;18176;49.502;11.754;2022-11-13T14:47:39;12.80;99.90
21184;DHT22;18176;49.502;11.754;2022-11-13T14:51:58;12.30;99.90
21184;DHT22;18176;49.502;11.754;2022-11-13T14:56:18;12.30;99.90
21184;DHT22;18176;49.502;11.754;2022-11-13T15:00:37;12.30;99.90
21184;DHT22;18176;49.502;11.754;2022-11-13T15:04:58;11.40;99.90
21184;DHT22;18176;49.502;11.754;2022-11-13T15:09:18;10.80;99.90
21184;DHT22;18176;49.502;11.754;2022-11-13T15:13:36;10.60;99.90
21184;DHT22;18176;49.502;11.754;2022-11-13T15:17:55;10.10;99.90
21184;DHT22;18176;49.502;11.754;2022-11-13T15:22:16;9.30;99.90
21184;DHT22;18176;49.502;11.754;2022-11-13T15:26:42;8.70;99.90
21184;DHT22;18176;49.502;11.754;2022-11-13T15:31:01;7.80;99.90
21184;DHT22;18176;49.502;11.754;2022-11-13T15:35:20;7.10;99.90
21184;DHT22;18176;49.502;11.754;2022-11-13T15:39:41;6.60;99.90
21184;DHT22;18176;49.502;11.754;2022-11-13T15:44:02;6.30;99.90
21184;DHT22;18176;49.502;11.754;2022-11-13T15:48:24;6.00;99.90
21184;DHT22;18176;49.502;11.754;2022-11-13T15:52:45;5.80;99.90
21184;DHT22;18176;49.502;11.754;2022-11-13T15:57:15;5.60;99.90
21184;DHT22;18176;49.502;11.754;2022-11-13T16:01:37;5.50;99.90
21184;DHT22;18176;49.502;11.754;2022-11-13T16:05:57;5.40;99.90
21184;DHT22;18176;49.502;11.754;2022-11-13T16:10:16;5.30;99.90
21184;DHT22;18176;49.502;11.754;2022-11-13T16:14:38;5.10;99.90
21184;DHT22;18176;49.502;11.754;2022-11-13T16:18:58;5.10;99.90
21184;DHT22;18176;49.502;11.754;2022-11-13T16:23:18;4.90;99.90
21184;DHT22;18176;49.502;11.754;2022-11-13T16:27:37;4.80;99.90
21184;DHT22;18176;49.502;11.754;2022-11-13T16:31:59;4.80;99.90
21184;DHT22;18176;49.502;11.754;2022-11-13T16:36:19;4.70;99.90
21184;DHT22;18176;49.502;11.754;2022-11-13T16:40:39;4.60;99.90
21184;DHT22;18176;49.502;11.754;2022-11-13T16:45:00;4.60;99.90
21184;DHT22;18176;49.502;11.754;2022-11-13T16:49:21;4.60;99.90
21184;DHT22;18176;49.502;11.754;2022-11-13T16:53:39;4.50;99.90
21184;DHT22;18176;49.502;11.754;2022-11-13T16:57:58;4.50;99.90
21184;DHT22;18176;49.502;11.754;2022-11-13T17:02:17;4.50;99.90
21184;DHT22;18176;49.502;11.754;2022-11-13T17:06:38;4.40;99.90
21184;DHT22;18176;49.502;11.754;2022-11-13T17:10:58;4.40;99.90
21184;DHT22;18176;49.502;11.754;2022-11-13T17:15:19;4.40;99.90
21184;DHT22;18176;49.502;11.754;2022-11-13T17:19:38;4.30;99.90
21184;DHT22;18176;49.502;11.754;2022-11-13T17:24:02;4.30;99.90
21184;DHT22;18176;49.502;11.754;2022-11-13T17:28:21;4.30;99.90
21184;DHT22;18176;49.502;11.754;2022-11-13T17:32:40;4.30;99.90
21184;DHT22;18176;49.502;11.754;2022-11-13T17:36:58;4.20;99.90
21184;DHT22;18176;49.502;11.754;2022-11-13T17:41:20;4.10;99.90
21184;DHT22;18176;49.502;11.754;2022-11-13T17:45:39;4.20;99.90
21184;DHT22;18176;49.502;11.754;2022-11-13T17:49:57;4.20;99.90
21184;DHT22;18176;49.502;11.754;2022-11-13T17:54:21;4.00;99.90
21184;DHT22;18176;49.502;11.754;2022-11-13T17:58:44;4.00;99.90
21184;DHT22;18176;49.502;11.754;2022-11-13T18:03:03;3.90;99.90
21184;DHT22;18176;49.502;11.754;2022-11-13T18:07:22;3.90;99.90
21184;DHT22;18176;49.502;11.754;2022-11-13T18:11:41;3.90;99.90
21184;DHT22;18176;49.502;11.754;2022-11-13T18:16:08;3.90;99.90
21184;DHT22;18176;49.502;11.754;2022-11-13T18:20:29;4.00;99.90
21184;DHT22;18176;49.502;11.754;2022-11-13T18:24:47;3.90;99.90
21184;DHT22;18176;49.502;11.754;2022-11-13T18:29:06;3.90;99.90
21184;DHT22;18176;49.502;11.754;2022-11-13T18:33:28;3.90;99.90
21184;DHT22;18176;49.502;11.754;2022-11-13T18:37:47;3.90;99.90
21184;DHT22;18176;49.502;11.754;2022-11-13T18:42:07;3.90;99.90
21184;DHT22;18176;49.502;11.754;2022-11-13T18:46:26;4.00;99.90
21184;DHT22;18176;49.502;11.754;2022-11-13T18:50:56;4.00;99.90
21184;DHT22;18176;49.502;11.754;2022-11-13T18:55:16;4.00;99.90
21184;DHT22;18176;49.502;11.754;2022-11-13T18:59:35;4.00;99.90
21184;DHT22;18176;49.502;11.754;2022-11-13T19:03:55;3.90;99.90
21184;DHT22;18176;49.502;11.754;2022-11-13T19:08:42;3.90;99.90
21184;DHT22;18176;49.502;11.754;2022-11-13T19:13:02;3.80;99.90
21184;DHT22;18176;49.502;11.754;2022-11-13T19:17:21;3.80;99.90
21184;DHT22;18176;49.502;11.754;2022-11-13T19:21:41;3.90;99.90
21184;DHT22;18176;49.502;11.754;2022-11-13T19:26:04;3.80;99.90
21184;DHT22;18176;49.502;11.754;2022-11-13T19:30:23;3.70;99.90
21184;DHT22;18176;49.502;11.754;2022-11-13T19:34:42;3.60;99.90
21184;DHT22;18176;49.502;11.754;2022-11-13T19:39:01;3.40;99.90
21184;DHT22;18176;49.502;11.754;2022-11-13T19:43:23;3.50;99.90
21184;DHT22;18176;49.502;11.754;2022-11-13T19:47:42;3.50;99.90
21184;DHT22;18176;49.502;11.754;2022-11-13T19:52:00;3.50;99.90
21184;DHT22;18176;49.502;11.754;2022-11-13T19:56:20;3.50;99.90
21184;DHT22;18176;49.502;11.754;2022-11-13T20:00:42;3.50;99.90
21184;DHT22;18176;49.502;11.754;2022-11-13T20:05:01;3.40;99.90
21184;DHT22;18176;49.502;11.754;2022-11-13T20:09:20;3.40;99.90
21184;DHT22;18176;49.502;11.754;2022-11-13T20:13:39;3.30;99.90
21184;DHT22;18176;49.502;11.754;2022-11-13T20:18:01;3.40;99.90
21184;DHT22;18176;49.502;11.754;2022-11-13T20:22:20;3.40;99.90
21184;DHT22;18176;49.502;11.754;2022-11-13T20:26:39;3.50;99.90
21184;DHT22;18176;49.502;11.754;2022-11-13T20:31:04;3.40;99.90
21184;DHT22;18176;49.502;11.754;2022-11-13T20:35:27;3.40;99.90
21184;DHT22;18176;49.502;11.754;2022-11-13T20:39:46;3.40;99.90
21184;DHT22;18176;49.502;11.754;2022-11-13T20:44:05;3.30;99.90
21184;DHT22;18176;49.502;11.754;2022-11-13T20:48:24;3.30;99.90
21184;DHT22;18176;49.502;11.754;2022-11-13T20:52:47;3.30;99.90
21184;DHT22;18176;49.502;11.754;2022-11-13T20:57:06;3.40;99.90
21184;DHT22;18176;49.502;11.754;2022-11-13T21:01:25;3.30;99.90
21184;DHT22;18176;49.502;11.754;2022-11-13T21:05:45;3.30;99.90
21184;DHT22;18176;49.502;11.754;2022-11-13T21:10:09;3.30;99.90
21184;DHT22;18176;49.502;11.754;2022-11-13T21:14:28;3.20;99.90
21184;DHT22;18176;49.502;11.754;2022-11-13T21:18:46;3.10;99.90
21184;DHT22;18176;49.502;11.754;2022-11-13T21:23:05;3.10;99.90
21184;DHT22;18176;49.502;11.754;2022-11-13T21:27:27;3.10;99.90
21184;DHT22;18176;49.502;11.754;2022-11-13T21:31:45;2.90;99.90
21184;DHT22;18176;49.502;11.754;2022-11-13T21:36:05;2.80;99.90
21184;DHT22;18176;49.502;11.754;2022-11-13T21:40:26;2.80;99.90
21184;DHT22;18176;49.502;11.754;2022-11-13T21:44:48;2.80;99.90
21184;DHT22;18176;49.502;11.754;2022-11-13T21:49:08;2.80;99.90
21184;DHT22;18176;49.502;11.754;2022-11-13T21:53:27;2.70;99.90
21184;DHT22;18176;49.502;11.754;2022-11-13T21:57:46;2.60;99.90
21184;DHT22;18176;49.502;11.754;2022-11-13T22:02:08;2.50;99.90
21184;DHT22;18176;49.502;11.754;2022-11-13T22:06:31;2.40;99.90
21184;DHT22;18176;49.502;11.754;2022-11-13T22:10:51;2.50;99.90
21184;DHT22;18176;49.502;11.754;2022-11-13T22:15:11;2.40;99.90
21184;DHT22;18176;49.502;11.754;2022-11-13T22:19:33;2.40;99.90
21184;DHT22;18176;49.502;11.754;2022-11-13T22:23:52;2.40;99.90
21184;DHT22;18176;49.502;11.754;2022-11-13T22:28:11;2.40;99.90
21184;DHT22;18176;49.502;11.754;2022-11-13T22:32:30;2.50;99.90
21184;DHT22;18176;49.502;11.754;2022-11-13T22:36:51;2.60;99.90
21184;DHT22;18176;49.502;11.754;2022-11-13T22:41:12;2.60;99.90
21184;DHT22;18176;49.502;11.754;2022-11-13T22:45:38;2.70;99.90
21184;DHT22;18176;49.502;11.754;2022-11-13T22:49:57;2.80;99.90
21184;DHT22;18176;49.502;11.754;2022-11-13T22:54:18;2.70;99.90
21184;DHT22;18176;49.502;11.754;2022-11-13T22:58:36;2.70;99.90
21184;DHT22;18176;49.502;11.754;2022-11-13T23:02:58;2.70;99.90
21184;DHT22;18176;49.502;11.754;2022-11-13T23:07:18;2.70;99.90
21184;DHT22;18176;49.502;11.754;2022-11-13T23:11:42;2.60;99.90
21184;DHT22;18176;49.502;11.754;2022-11-13T23:16:01;2.50;99.90
21184;DHT22;18176;49.502;11.754;2022-11-13T23:20:20;2.40;99.90
21184;DHT22;18176;49.502;11.754;2022-11-13T23:24:38;2.30;99.90
21184;DHT22;18176;49.502;11.754;2022-11-13T23:28:59;2.30;99.90
21184;DHT22;18176;49.502;11.754;2022-11-13T23:33:18;2.20;99.90
21184;DHT22;18176;49.502;11.754;2022-11-13T23:37:37;2.20;99.90
21184;DHT22;18176;49.502;11.754;2022-11-13T23:41:55;2.00;99.90
21184;DHT22;18176;49.502;11.754;2022-11-13T23:46:17;2.00;99.90
21184;DHT22;18176;49.502;11.754;2022-11-13T23:50:36;2.00;99.90
21184;DHT22;18176;49.502;11.754;2022-11-13T23:54:55;1.90;99.90
21184;DHT22;18176;49.502;11.754;2022-11-13T23:59:14;1.90;99.90
